createdAt,value
2023-02-05T00:01:36.552Z,89.72
2023-02-05T00:04:03.992Z,89.74
2023-02-05T00:06:31.453Z,89.44
2023-02-05T00:08:58.721Z,87.81
2023-02-05T00:11:26.687Z,87.05
2023-02-05T00:13:54.867Z,87.31
2023-02-05T00:16:25.361Z,86.05
2023-02-05T00:18:53.781Z,83.89
2023-02-05T00:21:22.593Z,84.17
2023-02-05T00:23:50.268Z,84.05
2023-02-05T00:26:17.692Z,84.31
2023-02-05T00:28:45.732Z,83.39
2023-02-05T00:31:23.620Z,82.12
2023-02-05T00:33:51.822Z,82.66
2023-02-05T00:36:20.534Z,81.91
2023-02-05T00:38:48.258Z,82.46
2023-02-05T00:41:16.114Z,80.93
2023-02-05T00:43:44.118Z,80.64
2023-02-05T00:46:12.751Z,80.81
2023-02-05T00:48:41.424Z,81.35
2023-02-05T00:51:09.933Z,81.87
2023-02-05T00:53:37.307Z,81.62
2023-02-05T00:56:04.677Z,82.30
2023-02-05T00:58:31.810Z,83.51
2023-02-05T01:00:59.219Z,82.43
2023-02-05T01:03:27.711Z,82.65
2023-02-05T01:05:54.902Z,81.05
2023-02-05T01:08:22.026Z,82.88
2023-02-05T01:10:50.953Z,83.54
2023-02-05T01:13:18.509Z,83.37
2023-02-05T01:15:46.245Z,84.38
2023-02-05T01:18:13.434Z,86.94
2023-02-05T01:20:42.010Z,85.09
2023-02-05T01:23:09.346Z,85.34
2023-02-05T01:25:37.101Z,85.53
2023-02-05T01:28:04.583Z,84.11
2023-02-05T01:30:31.805Z,86.00
2023-02-05T01:32:59.052Z,85.33
2023-02-05T01:35:26.418Z,83.66
2023-02-05T01:37:53.641Z,84.61
2023-02-05T01:40:21.457Z,84.98
2023-02-05T01:42:48.739Z,85.46
2023-02-05T01:45:21.940Z,85.30
2023-02-05T01:47:52.356Z,85.96
2023-02-05T01:50:25.229Z,84.63
2023-02-05T01:52:55.513Z,83.54
2023-02-05T01:55:22.616Z,83.38
2023-02-05T01:57:51.243Z,84.45
2023-02-05T02:00:18.385Z,83.24
2023-02-05T02:02:45.936Z,84.14
2023-02-05T02:05:16.182Z,82.95
2023-02-05T02:07:43.358Z,82.64
2023-02-05T02:10:15.389Z,81.41
2023-02-05T02:12:45.239Z,81.32
2023-02-05T02:15:20.896Z,82.17
2023-02-05T02:17:51.804Z,82.32
2023-02-05T02:20:26.272Z,82.37
2023-02-05T02:22:56.313Z,82.04
2023-02-05T02:25:32.799Z,83.18
2023-02-05T02:28:14.377Z,82.20
2023-02-05T02:30:53.682Z,85.07
2023-02-05T02:33:27.483Z,86.07
2023-02-05T02:36:26.244Z,86.57
2023-02-05T02:39:02.192Z,85.75
2023-02-05T02:41:55.650Z,86.33
2023-02-05T02:44:47.197Z,87.75
2023-02-05T02:47:18.834Z,88.08
2023-02-05T02:49:50.864Z,88.37
2023-02-05T02:52:22.875Z,90.06
2023-02-05T02:54:54.207Z,88.46
2023-02-05T02:57:26.335Z,88.96
2023-02-05T02:59:59.588Z,87.40
2023-02-05T03:02:30.741Z,87.87
2023-02-05T03:05:04.325Z,86.65
2023-02-05T03:07:42.125Z,85.90
2023-02-05T03:10:28.688Z,86.84
2023-02-05T03:12:58.135Z,86.15
2023-02-05T03:15:26.433Z,87.36
2023-02-05T03:17:55.706Z,87.32
2023-02-05T03:20:35.044Z,87.69
2023-02-05T03:23:02.338Z,88.60
2023-02-05T03:25:31.051Z,87.57
2023-02-05T03:28:00.319Z,87.91
2023-02-05T03:31:04.017Z,88.16
2023-02-05T03:33:51.455Z,89.29
2023-02-05T03:36:26.938Z,88.89
2023-02-05T03:39:15.951Z,88.02
2023-02-05T03:42:02.342Z,88.86
2023-02-05T03:44:36.432Z,88.65
2023-02-05T03:47:04.239Z,90.28
2023-02-05T03:49:53.160Z,90.43
2023-02-05T03:52:27.318Z,91.52
2023-02-05T03:55:00.470Z,90.57
2023-02-05T03:57:49.730Z,90.24
2023-02-05T04:00:18.115Z,88.67
2023-02-05T04:02:47.337Z,88.69
2023-02-05T04:05:23.091Z,89.25
2023-02-05T04:07:52.913Z,90.01
2023-02-05T04:10:23.451Z,90.96
2023-02-05T04:12:51.498Z,91.03
2023-02-05T04:15:19.257Z,90.76
2023-02-05T04:17:50.537Z,89.54
2023-02-05T04:20:18.741Z,90.53
2023-02-05T04:22:45.904Z,90.29
2023-02-05T04:25:13.365Z,90.96
2023-02-05T04:27:40.690Z,90.83
2023-02-05T04:30:08.489Z,91.57
2023-02-05T04:32:39.156Z,90.58
2023-02-05T04:35:06.610Z,90.62
2023-02-05T04:37:33.618Z,91.28
2023-02-05T04:40:00.685Z,92.46
2023-02-05T04:42:27.722Z,93.60
2023-02-05T04:44:54.850Z,93.51
2023-02-05T04:47:21.881Z,94.06
2023-02-05T04:49:49.128Z,92.67
2023-02-05T04:52:16.161Z,92.18
2023-02-05T04:54:43.303Z,92.17
2023-02-05T04:57:10.278Z,92.59
2023-02-05T04:59:37.386Z,92.20
2023-02-05T05:02:04.575Z,92.68
2023-02-05T05:04:31.515Z,92.83
2023-02-05T05:06:58.839Z,92.80
2023-02-05T05:09:26.888Z,93.05
2023-02-05T05:11:56.540Z,92.88
2023-02-05T05:14:23.517Z,93.20
2023-02-05T05:16:50.929Z,93.13
2023-02-05T05:19:18.033Z,93.98
2023-02-05T05:21:45.074Z,94.86
2023-02-05T05:24:15.275Z,94.07
2023-02-05T05:26:45.199Z,93.32
2023-02-05T05:29:13.500Z,93.55
2023-02-05T05:31:41.890Z,94.14
2023-02-05T05:34:09.104Z,93.83
2023-02-05T05:36:36.247Z,94.14
2023-02-05T05:39:22.232Z,94.12
2023-02-05T05:42:07.688Z,94.47
2023-02-05T05:44:34.645Z,94.66
2023-02-05T05:47:01.577Z,93.66
2023-02-05T05:49:28.729Z,93.63
2023-02-05T05:51:55.699Z,93.93
2023-02-05T05:54:23.013Z,93.33
2023-02-05T05:56:50.336Z,94.11
2023-02-05T05:59:17.824Z,94.03
2023-02-05T06:01:44.749Z,94.94
2023-02-05T06:04:12.187Z,93.99
2023-02-05T06:06:39.220Z,93.80
2023-02-05T06:09:06.275Z,93.49
2023-02-05T06:11:33.805Z,93.89
2023-02-05T06:14:00.768Z,92.55
2023-02-05T06:16:27.917Z,92.88
2023-02-05T06:18:55.722Z,92.67
2023-02-05T06:21:23.023Z,93.47
2023-02-05T06:23:50.195Z,92.87
2023-02-05T06:26:18.491Z,93.36
2023-02-05T06:28:45.593Z,93.26
2023-02-05T06:31:12.819Z,92.50
2023-02-05T06:33:39.794Z,92.03
2023-02-05T06:36:07.697Z,91.72
2023-02-05T06:38:34.857Z,92.37
2023-02-05T06:41:01.813Z,92.30
2023-02-05T06:43:28.940Z,92.48
2023-02-05T06:45:55.903Z,92.63
2023-02-05T06:48:23.010Z,91.98
2023-02-05T06:50:49.993Z,92.76
2023-02-05T06:53:17.384Z,91.66
2023-02-05T06:55:45.967Z,92.18
2023-02-05T06:58:13.060Z,91.74
2023-02-05T07:00:40.372Z,91.98
2023-02-05T07:03:07.390Z,92.83
2023-02-05T07:05:35.162Z,92.32
2023-02-05T07:08:04.460Z,92.54
2023-02-05T07:10:31.396Z,91.87
2023-02-05T07:12:58.419Z,93.07
2023-02-05T07:15:25.669Z,92.17
2023-02-05T07:17:52.809Z,92.33
2023-02-05T07:20:20.003Z,91.22
2023-02-05T07:22:47.325Z,90.96
2023-02-05T07:25:14.389Z,91.64
2023-02-05T07:27:41.919Z,92.59
2023-02-05T07:30:09.526Z,92.81
2023-02-05T07:32:36.644Z,91.99
2023-02-05T07:35:03.980Z,92.18
2023-02-05T07:37:31.596Z,91.47
2023-02-05T07:39:58.472Z,90.98
2023-02-05T07:42:25.426Z,90.84
2023-02-05T07:44:57.297Z,91.25
2023-02-05T07:47:24.263Z,91.57
2023-02-05T07:49:51.750Z,91.70
2023-02-05T07:52:18.893Z,90.99
2023-02-05T07:54:46.025Z,91.82
2023-02-05T07:57:12.921Z,91.03
2023-02-05T07:59:39.868Z,92.28
2023-02-05T08:02:07.660Z,93.70
2023-02-05T08:04:34.654Z,91.76
2023-02-05T08:07:01.824Z,92.05
2023-02-05T08:09:29.078Z,92.47
2023-02-05T08:11:56.199Z,92.59
2023-02-05T08:14:23.225Z,92.37
2023-02-05T08:16:50.537Z,93.14
2023-02-05T08:19:18.521Z,90.64
2023-02-05T08:21:45.532Z,90.61
2023-02-05T08:24:12.704Z,89.89
2023-02-05T08:26:40.297Z,89.51
2023-02-05T08:29:08.455Z,88.21
2023-02-05T08:31:36.060Z,88.96
2023-02-05T08:34:03.877Z,89.09
2023-02-05T08:36:31.242Z,88.78
2023-02-05T08:38:58.299Z,88.47
2023-02-05T08:41:25.404Z,83.14
2023-02-05T08:43:52.339Z,82.45
2023-02-05T08:46:22.023Z,81.86
2023-02-05T08:48:49.447Z,80.89
2023-02-05T08:51:17.249Z,81.36
2023-02-05T08:53:44.236Z,77.29
2023-02-05T08:56:14.079Z,78.73
2023-02-05T08:58:42.068Z,77.93
2023-02-05T09:01:15.392Z,78.19
2023-02-05T09:03:42.787Z,76.49
2023-02-05T09:06:13.318Z,79.52
2023-02-05T09:08:40.779Z,78.15
2023-02-05T09:11:08.882Z,76.49
2023-02-05T09:13:36.748Z,77.23
2023-02-05T09:16:03.805Z,77.00
2023-02-05T09:18:31.160Z,76.72
2023-02-05T09:20:58.197Z,76.23
2023-02-05T09:23:25.312Z,73.94
2023-02-05T09:25:52.557Z,73.06
2023-02-05T09:28:19.591Z,74.82
2023-02-05T09:30:46.995Z,75.35
2023-02-05T09:33:14.372Z,75.83
2023-02-05T09:35:42.315Z,71.90
2023-02-05T09:38:12.957Z,73.17
2023-02-05T09:40:50.461Z,73.52
2023-02-05T09:43:38.493Z,74.37
2023-02-05T09:46:17.358Z,73.91
2023-02-05T09:48:54.941Z,74.93
2023-02-05T09:51:33.691Z,73.39
2023-02-05T09:54:12.813Z,72.28
2023-02-05T09:56:40.133Z,71.17
2023-02-05T09:59:07.574Z,70.34
2023-02-05T10:01:43.925Z,70.85
2023-02-05T10:04:11.713Z,72.16
2023-02-05T10:06:54.150Z,72.79
2023-02-05T10:09:21.062Z,72.48
2023-02-05T10:12:14.055Z,70.23
2023-02-05T10:14:52.727Z,68.78
2023-02-05T10:17:56.332Z,71.68
2023-02-05T10:20:39.062Z,71.92
2023-02-05T10:23:34.159Z,69.92
2023-02-05T10:26:13.351Z,69.04
2023-02-05T10:29:04.822Z,69.47
2023-02-05T10:31:41.039Z,67.28
2023-02-05T10:34:18.468Z,70.20
2023-02-05T10:36:52.171Z,68.06
2023-02-05T10:39:23.427Z,65.65
2023-02-05T10:42:16.543Z,66.23
2023-02-05T10:44:46.601Z,67.41
2023-02-05T10:47:44.952Z,67.94
2023-02-05T10:50:23.783Z,66.52
2023-02-05T10:52:51.391Z,63.21
2023-02-05T10:55:18.403Z,63.29
2023-02-05T10:57:45.430Z,64.33
2023-02-05T11:00:21.934Z,65.87
2023-02-05T11:02:54.824Z,63.31
2023-02-05T11:05:34.727Z,62.03
2023-02-05T11:08:01.956Z,61.83
2023-02-05T11:10:31.891Z,60.57
2023-02-05T11:13:20.376Z,60.33
2023-02-05T11:16:04.677Z,60.98
2023-02-05T11:18:57.548Z,61.20
2023-02-05T11:21:46.492Z,61.68
2023-02-05T11:24:25.816Z,62.10
2023-02-05T11:27:16.014Z,59.34
2023-02-05T11:29:43.637Z,58.67
2023-02-05T11:32:35.302Z,60.17
2023-02-05T11:35:18.996Z,58.37
2023-02-05T11:37:48.957Z,59.73
2023-02-05T11:40:26.252Z,58.64
2023-02-05T11:43:08.937Z,57.92
2023-02-05T11:45:39.923Z,59.46
2023-02-05T11:48:41.382Z,59.18
2023-02-05T11:51:11.711Z,58.35
2023-02-05T11:53:55.584Z,57.38
2023-02-05T11:56:25.623Z,57.82
2023-02-05T11:59:16.823Z,57.97
2023-02-05T12:01:46.029Z,58.51
2023-02-05T12:04:19.504Z,57.41
2023-02-05T12:06:52.346Z,57.19
2023-02-05T12:09:25.222Z,58.68
2023-02-05T12:12:28.022Z,58.87
2023-02-05T12:15:13.924Z,58.97
2023-02-05T12:18:14.732Z,59.82
2023-02-05T12:20:46.163Z,61.44
2023-02-05T12:23:25.820Z,60.43
2023-02-05T12:26:08.646Z,59.94
2023-02-05T12:28:42.016Z,59.92
2023-02-05T12:31:25.042Z,60.92
2023-02-05T12:34:24.792Z,62.17
2023-02-05T12:37:05.331Z,63.13
2023-02-05T12:39:47.731Z,63.89
2023-02-05T12:42:33.174Z,63.09
2023-02-05T12:45:18.884Z,63.16
2023-02-05T12:47:57.678Z,64.70
2023-02-05T12:50:47.701Z,67.17
2023-02-05T12:53:52.292Z,69.16
2023-02-05T12:56:28.157Z,69.95
2023-02-05T12:59:09.611Z,71.14
2023-02-05T13:01:53.953Z,71.07
2023-02-05T13:04:56.216Z,72.10
2023-02-05T13:07:35.449Z,73.24
2023-02-05T13:10:05.628Z,73.50
2023-02-05T13:12:43.413Z,74.53
2023-02-05T13:15:16.610Z,74.90
2023-02-05T13:18:01.960Z,73.68
2023-02-05T13:20:55.259Z,73.88
2023-02-05T13:23:41.646Z,72.96
2023-02-05T13:26:24.691Z,72.07
2023-02-05T13:29:10.503Z,71.29
2023-02-05T13:31:48.412Z,70.21
2023-02-05T13:34:17.035Z,68.94
2023-02-05T13:36:52.999Z,66.67
2023-02-05T13:39:38.754Z,64.72
2023-02-05T13:42:47.342Z,63.38
2023-02-05T13:45:52.179Z,63.45
2023-02-05T13:48:27.518Z,67.33
2023-02-05T13:51:06.992Z,70.33
2023-02-05T13:53:53.157Z,71.30
2023-02-05T13:56:41.688Z,72.85
2023-02-05T13:59:17.802Z,72.07
2023-02-05T14:01:52.432Z,72.37
2023-02-05T14:04:20.262Z,72.94
2023-02-05T14:07:00.871Z,73.40
2023-02-05T14:09:56.478Z,74.92
2023-02-05T14:12:27.056Z,74.80
2023-02-05T14:15:19.741Z,76.60
2023-02-05T14:17:46.808Z,76.08
2023-02-05T14:20:41.703Z,75.69
2023-02-05T14:23:14.585Z,74.93
2023-02-05T14:25:42.824Z,73.73
2023-02-05T14:28:16.185Z,73.81
2023-02-05T14:30:52.243Z,73.30
2023-02-05T14:33:43.457Z,73.46
2023-02-05T14:36:24.394Z,73.24
2023-02-05T14:38:51.248Z,72.22
2023-02-05T14:41:21.391Z,72.97
2023-02-05T14:44:05.870Z,72.84
2023-02-05T14:46:44.530Z,73.30
2023-02-05T14:49:37.958Z,73.80
2023-02-05T14:52:46.290Z,73.47
2023-02-05T14:55:13.257Z,73.38
2023-02-05T14:57:40.072Z,73.25
2023-02-05T15:00:27.955Z,73.77
2023-02-05T15:03:15.288Z,74.96
2023-02-05T15:05:45.719Z,76.15
2023-02-05T15:08:34.038Z,76.53
2023-02-05T15:11:10.064Z,78.41
2023-02-05T15:13:38.342Z,79.94
2023-02-05T15:16:11.691Z,82.83
2023-02-05T15:18:40.163Z,84.55
2023-02-05T15:21:16.355Z,85.92
2023-02-05T15:23:52.157Z,86.93
2023-02-05T15:26:40.096Z,88.16
2023-02-05T15:29:25.762Z,89.10
2023-02-05T15:31:56.461Z,88.83
2023-02-05T15:34:37.473Z,87.85
2023-02-05T15:37:21.053Z,87.77
2023-02-05T15:39:53.765Z,87.61
2023-02-05T15:42:26.922Z,88.71
2023-02-05T15:44:53.884Z,88.51
2023-02-05T15:47:23.657Z,87.88
2023-02-05T15:49:55.076Z,87.18
2023-02-05T15:52:29.008Z,86.44
2023-02-05T15:55:08.954Z,85.15
2023-02-05T15:57:36.203Z,85.40
2023-02-05T16:00:08.585Z,84.84
2023-02-05T16:02:36.816Z,82.97
2023-02-05T16:05:18.917Z,83.63
2023-02-05T16:07:51.853Z,84.86
2023-02-05T16:10:27.781Z,83.00
2023-02-05T16:13:15.717Z,82.64
2023-02-05T16:16:24.258Z,83.18
2023-02-05T16:18:57.112Z,82.90
2023-02-05T16:21:25.820Z,83.21
2023-02-05T16:24:07.443Z,82.46
2023-02-05T16:26:44.047Z,81.59
2023-02-05T16:29:38.978Z,80.93
2023-02-05T16:32:36.393Z,79.61
2023-02-05T16:35:08.014Z,80.44
2023-02-05T16:37:36.218Z,79.17
2023-02-05T16:40:06.942Z,80.38
2023-02-05T16:42:43.488Z,79.44
2023-02-05T16:45:10.660Z,79.46
2023-02-05T16:47:39.009Z,78.75
2023-02-05T16:50:38.614Z,77.77
2023-02-05T16:53:19.226Z,77.22
2023-02-05T16:55:47.464Z,77.75
2023-02-05T16:58:22.727Z,76.89
2023-02-05T17:01:02.019Z,77.17
2023-02-05T17:03:35.503Z,77.95
2023-02-05T17:06:11.190Z,76.01
2023-02-05T17:08:38.380Z,74.89
2023-02-05T17:11:26.905Z,74.43
2023-02-05T17:14:11.634Z,75.90
2023-02-05T17:16:42.723Z,75.88
2023-02-05T17:19:30.557Z,75.90
2023-02-05T17:22:15.989Z,76.19
2023-02-05T17:24:49.322Z,74.84
2023-02-05T17:27:23.092Z,74.73
2023-02-05T17:29:50.675Z,75.47
2023-02-05T17:32:20.149Z,75.29
2023-02-05T17:34:47.622Z,74.87
2023-02-05T17:37:15.252Z,74.94
2023-02-05T17:39:42.902Z,74.76
2023-02-05T17:42:19.225Z,73.99
2023-02-05T17:44:46.715Z,74.40
2023-02-05T17:47:14.118Z,74.76
2023-02-05T17:49:41.978Z,74.50
2023-02-05T17:52:10.565Z,74.16
2023-02-05T17:54:37.804Z,74.25
2023-02-05T17:57:22.088Z,74.50
2023-02-05T17:59:49.834Z,74.75
2023-02-05T18:02:17.254Z,73.21
2023-02-05T18:04:46.011Z,73.77
2023-02-05T18:07:35.583Z,73.64
2023-02-05T18:10:04.191Z,73.58
2023-02-05T18:12:31.555Z,73.34
2023-02-05T18:14:58.861Z,73.14
2023-02-05T18:17:25.956Z,73.56
2023-02-05T18:19:53.052Z,73.39
2023-02-05T18:22:20.034Z,74.13
2023-02-05T18:24:46.986Z,74.33
2023-02-05T18:27:14.132Z,74.58
2023-02-05T18:29:43.422Z,74.97
2023-02-05T18:32:11.442Z,74.29
2023-02-05T18:34:40.072Z,74.18
2023-02-05T18:37:07.215Z,74.81
2023-02-05T18:39:34.113Z,74.51
2023-02-05T18:42:01.037Z,74.49
2023-02-05T18:44:28.345Z,74.70
2023-02-05T18:46:55.377Z,73.98
2023-02-05T18:49:22.769Z,75.00
2023-02-05T18:51:49.896Z,74.96
2023-02-05T18:54:16.830Z,75.22
2023-02-05T18:56:44.031Z,75.67
2023-02-05T18:59:15.553Z,75.69
2023-02-05T19:01:43.137Z,75.83
2023-02-05T19:04:13.165Z,75.96
2023-02-05T19:06:42.470Z,76.18
2023-02-05T19:09:10.002Z,76.28
2023-02-05T19:11:41.006Z,75.90
2023-02-05T19:14:12.008Z,76.07
2023-02-05T19:16:40.263Z,75.89
2023-02-05T19:19:08.104Z,76.08
2023-02-05T19:21:36.241Z,75.60
2023-02-05T19:24:09.820Z,75.98
2023-02-05T19:26:38.882Z,75.90
2023-02-05T19:29:09.158Z,75.15
2023-02-05T19:31:37.645Z,75.54
2023-02-05T19:34:07.030Z,75.48
2023-02-05T19:36:34.247Z,75.12
2023-02-05T19:39:02.359Z,75.04
2023-02-05T19:41:32.100Z,75.02
2023-02-05T19:44:02.367Z,75.22
2023-02-05T19:46:33.475Z,75.14
2023-02-05T19:49:08.109Z,75.56
2023-02-05T19:51:35.987Z,75.28
2023-02-05T19:54:04.109Z,76.05
2023-02-05T19:56:32.487Z,76.33
2023-02-05T19:58:59.937Z,75.81
2023-02-05T20:01:29.806Z,75.62
2023-02-05T20:04:07.843Z,75.55
2023-02-05T20:06:35.224Z,75.33
2023-02-05T20:09:03.933Z,75.08
2023-02-05T20:11:30.950Z,75.94
2023-02-05T20:14:01.453Z,75.39
2023-02-05T20:16:28.397Z,75.39
2023-02-05T20:18:58.278Z,75.67
2023-02-05T20:21:26.800Z,75.71
2023-02-05T20:23:54.796Z,75.68
2023-02-05T20:26:23.177Z,74.67
2023-02-05T20:29:11.813Z,74.57
2023-02-05T20:31:42.880Z,75.02
2023-02-05T20:34:11.497Z,75.18
2023-02-05T20:36:39.227Z,74.77
2023-02-05T20:39:07.661Z,74.20
2023-02-05T20:41:35.486Z,74.33
2023-02-05T20:44:03.689Z,73.93
2023-02-05T20:46:31.420Z,74.03
2023-02-05T20:49:00.376Z,74.05
2023-02-05T20:51:27.623Z,74.20
2023-02-05T20:53:59.423Z,75.71
2023-02-05T20:56:30.150Z,75.67
2023-02-05T20:59:02.278Z,75.51
2023-02-05T21:01:31.637Z,75.28
2023-02-05T21:04:00.277Z,75.49
2023-02-05T21:06:30.115Z,74.54
2023-02-05T21:08:57.644Z,74.79
2023-02-05T21:11:26.128Z,75.31
2023-02-05T21:13:53.250Z,74.71
2023-02-05T21:16:23.067Z,74.98
2023-02-05T21:18:51.387Z,74.92
2023-02-05T21:21:28.169Z,74.60
2023-02-05T21:24:06.631Z,74.65
2023-02-05T21:26:40.086Z,73.37
2023-02-05T21:29:13.324Z,73.83
2023-02-05T21:31:49.251Z,73.86
2023-02-05T21:34:22.099Z,73.56
2023-02-05T21:36:50.282Z,73.50
2023-02-05T21:39:20.204Z,73.49
2023-02-05T21:41:50.185Z,73.31
2023-02-05T21:44:17.269Z,73.75
2023-02-05T21:46:44.439Z,73.08
2023-02-05T21:49:12.086Z,72.96
2023-02-05T21:51:42.400Z,73.37
2023-02-05T21:54:10.887Z,73.43
2023-02-05T21:56:43.419Z,73.09
2023-02-05T21:59:12.581Z,73.28
2023-02-05T22:01:41.762Z,72.29
2023-02-05T22:04:13.011Z,71.57
2023-02-05T22:06:40.772Z,72.16
2023-02-05T22:09:09.712Z,72.37
2023-02-05T22:11:38.544Z,72.26
2023-02-05T22:14:05.639Z,72.35
2023-02-05T22:16:34.441Z,72.57
2023-02-05T22:19:02.751Z,73.58
2023-02-05T22:21:35.049Z,72.96
2023-02-05T22:24:04.330Z,73.56
2023-02-05T22:26:33.866Z,73.86
2023-02-05T22:29:02.209Z,73.62
2023-02-05T22:31:29.994Z,74.38
2023-02-05T22:33:58.008Z,74.28
2023-02-05T22:36:28.239Z,74.40
2023-02-05T22:38:58.641Z,74.70
2023-02-05T22:41:26.942Z,75.46
2023-02-05T22:43:54.939Z,75.18
2023-02-05T22:46:24.624Z,74.82
2023-02-05T22:48:53.396Z,74.61
2023-02-05T22:51:26.407Z,75.32
2023-02-05T22:53:54.127Z,75.11
2023-02-05T22:56:21.544Z,74.88
2023-02-05T22:58:49.715Z,74.87
2023-02-05T23:01:20.269Z,75.94
2023-02-05T23:03:49.392Z,75.53
2023-02-05T23:06:18.180Z,76.25
2023-02-05T23:08:50.728Z,76.18
2023-02-05T23:11:18.424Z,76.43
2023-02-05T23:13:45.679Z,76.61
2023-02-05T23:16:16.426Z,76.87
2023-02-05T23:18:44.188Z,76.63
2023-02-05T23:21:14.413Z,76.76
2023-02-05T23:23:42.407Z,76.50
2023-02-05T23:26:12.852Z,76.63
2023-02-05T23:28:40.203Z,76.83
2023-02-05T23:31:07.791Z,76.92
2023-02-05T23:33:35.766Z,77.17
2023-02-05T23:36:03.822Z,77.57
2023-02-05T23:38:31.356Z,77.85
2023-02-05T23:40:59.125Z,78.81
2023-02-05T23:43:26.493Z,79.85
2023-02-05T23:45:54.943Z,80.55
2023-02-05T23:48:22.146Z,81.12
2023-02-05T23:50:59.936Z,81.08
2023-02-05T23:53:27.504Z,81.60
2023-02-05T23:55:54.462Z,80.85
2023-02-05T23:58:27.982Z,81.24
